Time;durP1;ratioP1;P1;durP2;ratioP2;P2;SDS_P1;SDS_P2;PMS_P1;PMS_P2;Temp;Humidity;BMP_temperature;BMP_pressure;BME280_temperature;BME280_humidity;BME280_pressure;Samples;Min_cycle;Max_cycle;Signal;HPM_P1;HPM_P2
2024/02/15 00:00:28;;;;;;;;;;;10.70;99.90;;;;;;6150090;23;20079;-80
2024/02/15 00:02:54;;;;;;;2.72;1.02;;;10.70;99.90;;;;;;6146922;23;20676;-81
2024/02/15 00:05:19;;;;;;;0.90;0.90;;;10.70;99.90;;;;;;6121102;23;20013;-80
2024/02/15 00:07:48;;;;;;;0.98;0.98;;;10.70;99.90;;;;;;6122210;23;20013;-80
2024/02/15 00:10:14;;;;;;;1.90;1.83;;;10.70;99.90;;;;;;6172005;23;20017;-80
2024/02/15 00:12:40;;;;;;;1.38;0.88;;;10.70;99.90;;;;;;6121780;23;20442;-80
2024/02/15 00:15:06;;;;;;;1.40;0.75;;;10.70;99.90;;;;;;6146031;23;20028;-80
2024/02/15 00:17:32;;;;;;;12.68;1.40;;;10.70;99.90;;;;;;6123911;23;20104;-80
2024/02/15 00:20:00;;;;;;;2.67;2.47;;;10.70;99.90;;;;;;6126734;23;20096;-79
2024/02/15 00:22:25;;;;;;;3.38;1.15;;;10.70;99.90;;;;;;6123761;23;20111;-80
2024/02/15 00:24:51;;;;;;;0.85;0.85;;;10.70;99.90;;;;;;6123715;23;20048;-80
2024/02/15 00:27:17;;;;;;;2.42;2.33;;;10.70;99.90;;;;;;6102277;23;20013;-80
2024/02/15 00:29:43;;;;;;;2.03;1.60;;;10.70;99.90;;;;;;6152745;23;20439;-79
2024/02/15 00:32:10;;;;;;;0.40;0.40;;;10.80;99.90;;;;;;6154262;23;20032;-79
2024/02/15 00:34:38;;;;;;;13.20;3.25;;;10.80;99.90;;;;;;6130467;23;20080;-81
2024/02/15 00:37:04;;;;;;;1.52;1.42;;;10.80;99.90;;;;;;6154248;23;20091;-81
2024/02/15 00:39:31;;;;;;;0.52;0.52;;;10.80;99.90;;;;;;6154989;23;20024;-81
2024/02/15 00:41:57;;;;;;;0.85;0.85;;;10.80;99.90;;;;;;6154298;23;20024;-80
2024/02/15 00:44:23;;;;;;;1.13;1.02;;;10.80;99.90;;;;;;6129850;23;20080;-81
2024/02/15 00:46:49;;;;;;;1.73;1.63;;;10.80;99.90;;;;;;6154238;23;20041;-81
2024/02/15 00:49:15;;;;;;;0.70;0.70;;;10.80;99.90;;;;;;6129251;23;20013;-81
2024/02/15 00:51:40;;;;;;;2.25;1.27;;;10.80;99.90;;;;;;6105846;23;20013;-82
2024/02/15 00:54:06;;;;;;;5.07;1.90;;;10.80;99.90;;;;;;6155012;23;20080;-80
2024/02/15 00:56:32;;;;;;;2.28;1.33;;;10.80;99.90;;;;;;6181800;23;20059;-81
2024/02/15 00:59:01;;;;;;;1.40;1.35;;;10.90;99.90;;;;;;6130433;23;20017;-81
2024/02/15 01:01:27;;;;;;;2.05;1.92;;;10.80;99.90;;;;;;6154257;23;20021;-81
2024/02/15 01:03:52;;;;;;;13.60;1.52;;;10.90;99.90;;;;;;6081140;23;20380;-81
2024/02/15 01:06:18;;;;;;;9.10;1.30;;;10.90;99.90;;;;;;6105360;23;20017;-81
2024/02/15 01:08:44;;;;;;;1.75;1.65;;;10.80;99.90;;;;;;6129746;23;20498;-80
2024/02/15 01:11:10;;;;;;;0.95;0.95;;;10.80;99.90;;;;;;6156097;23;20017;-81
2024/02/15 01:13:36;;;;;;;1.50;1.13;;;10.80;99.90;;;;;;6155844;23;20024;-82
2024/02/15 01:16:04;;;;;;;2.10;1.90;;;10.80;99.90;;;;;;6156280;23;20020;-81
2024/02/15 01:18:31;;;;;;;1.13;1.13;;;10.80;99.90;;;;;;6154468;23;20475;-81
2024/02/15 01:20:57;;;;;;;10.75;1.85;;;10.80;99.90;;;;;;6106788;23;20020;-82
2024/02/15 01:23:23;;;;;;;0.57;0.57;;;10.90;99.90;;;;;;6182240;23;20021;-81
2024/02/15 01:25:49;;;;;;;2.78;2.58;;;10.90;99.90;;;;;;6156333;23;20012;-82
2024/02/15 01:28:15;;;;;;;1.48;1.40;;;10.90;99.90;;;;;;6131057;23;20020;-81
2024/02/15 01:30:43;;;;;;;1.77;1.67;;;10.80;99.90;;;;;;6130480;23;20071;-81
2024/02/15 01:33:11;;;;;;;1.05;1.05;;;10.80;99.90;;;;;;6131014;23;20076;-82
2024/02/15 01:35:37;;;;;;;0.88;0.88;;;10.80;99.90;;;;;;6154665;23;20052;-82
2024/02/15 01:38:03;;;;;;;;;;;10.80;99.90;;;;;;6105850;23;20016;-82
2024/02/15 01:40:28;;;;;;;2.25;2.05;;;10.80;99.90;;;;;;6129633;23;19935;-80
2024/02/15 01:42:54;;;;;;;1.13;1.02;;;10.90;99.90;;;;;;6155304;23;20017;-81
2024/02/15 01:45:21;;;;;;;;;;;10.80;99.90;;;;;;6131240;23;20017;-81
2024/02/15 01:47:48;;;;;;;0.80;0.57;;;10.90;99.90;;;;;;6156941;23;19916;-81
2024/02/15 01:50:16;;;;;;;3.75;3.55;;;10.80;99.90;;;;;;6132701;23;20013;-81
2024/02/15 01:52:47;;;;;;;1.90;1.55;;;10.80;99.90;;;;;;6108711;23;20055;-81
2024/02/15 01:55:14;;;;;;;0.82;0.82;;;10.80;99.90;;;;;;6132720;23;20018;-81
2024/02/15 01:57:47;;;;;;;0.68;0.68;;;10.80;99.90;;;;;;6108605;23;20021;-82
2024/02/15 02:00:15;;;;;;;10.13;0.98;;;10.80;99.90;;;;;;6158328;23;20069;-81
2024/02/15 02:02:42;;;;;;;1.77;1.67;;;10.80;99.90;;;;;;6183984;23;20017;-81
2024/02/15 02:05:08;;;;;;;0.50;0.50;;;10.80;99.90;;;;;;6158431;23;20011;-81
2024/02/15 02:07:35;;;;;;;1.30;1.08;;;10.90;99.90;;;;;;6157493;23;20346;-81
2024/02/15 02:10:01;;;;;;;0.80;0.80;;;10.80;99.90;;;;;;6156978;23;20201;-81
2024/02/15 02:12:27;;;;;;;0.38;0.38;;;10.80;99.90;;;;;;6182847;23;20094;-81
2024/02/15 02:14:56;;;;;;;1.55;0.88;;;10.80;99.90;;;;;;6157760;23;20320;-80
2024/02/15 02:17:22;;;;;;;0.50;0.50;;;10.90;99.90;;;;;;6157770;23;20489;-82
2024/02/15 02:19:51;;;;;;;1.42;1.30;;;10.80;99.90;;;;;;6158033;23;20013;-81
2024/02/15 02:22:18;;;;;;;0.55;0.55;;;10.90;99.90;;;;;;6133171;23;20056;-82
2024/02/15 02:25:06;;;;;;;4.40;0.90;;;10.80;99.90;;;;;;6155730;23;20517;-82
2024/02/15 02:27:32;;;;;;;3.30;1.27;;;10.80;99.90;;;;;;6155890;23;20099;-81
2024/02/15 02:29:59;;;;;;;0.55;0.55;;;10.80;99.90;;;;;;6155799;23;20092;-81
2024/02/15 02:32:28;;;;;;;0.73;0.73;;;10.80;99.90;;;;;;6130783;23;20407;-82
2024/02/15 02:34:57;;;;;;;0.75;0.75;;;10.90;99.90;;;;;;6181991;23;20017;-82
2024/02/15 02:37:26;;;;;;;0.30;0.30;;;10.80;99.90;;;;;;6132525;23;20024;-82
2024/02/15 02:39:52;;;;;;;3.33;3.13;;;10.80;99.90;;;;;;6129895;23;20522;-81
2024/02/15 02:42:18;;;;;;;0.40;0.40;;;10.90;99.90;;;;;;6130958;23;20063;-82
2024/02/15 02:44:44;;;;;;;2.15;1.60;;;10.90;99.90;;;;;;6155685;23;20017;-81
2024/02/15 02:47:10;;;;;;;0.40;0.40;;;10.90;99.90;;;;;;6182957;23;20009;-82
2024/02/15 02:49:36;;;;;;;1.30;1.17;;;10.90;99.90;;;;;;6130937;23;20048;-82
2024/02/15 02:52:03;;;;;;;1.15;1.00;;;10.90;99.90;;;;;;6132193;23;20396;-82
2024/02/15 02:54:29;;;;;;;0.93;0.93;;;10.90;99.90;;;;;;6181652;23;20092;-81
2024/02/15 02:56:55;;;;;;;0.55;0.55;;;10.90;99.90;;;;;;6156316;23;20107;-82
2024/02/15 02:59:21;;;;;;;0.60;0.60;;;10.90;99.90;;;;;;6131793;23;20530;-80
2024/02/15 03:01:47;;;;;;;0.28;0.28;;;11.00;99.90;;;;;;6130767;23;20028;-81
2024/02/15 03:04:16;;;;;;;;;;;10.90;99.90;;;;;;6132217;23;20009;-81
2024/02/15 03:06:43;;;;;;;0.70;0.70;;;10.90;99.90;;;;;;6130657;23;20341;-81
2024/02/15 03:09:09;;;;;;;0.60;0.60;;;11.00;99.90;;;;;;6131351;23;20534;-81
2024/02/15 03:11:36;;;;;;;0.95;0.65;;;11.00;99.90;;;;;;6155871;23;20017;-82
2024/02/15 03:14:04;;;;;;;1.35;1.25;;;11.00;99.90;;;;;;6156068;23;20017;-82
2024/02/15 03:16:36;;;;;;;0.40;0.40;;;11.00;99.90;;;;;;6182424;23;20071;-82
2024/02/15 03:19:05;;;;;;;0.75;0.70;;;11.00;99.90;;;;;;6182518;23;20468;-82
2024/02/15 03:21:31;;;;;;;0.38;0.38;;;10.90;99.90;;;;;;6130882;23;20095;-81
2024/02/15 03:23:57;;;;;;;;;;;11.00;99.90;;;;;;6182539;23;20100;-81
2024/02/15 03:26:36;;;;;;;0.43;0.43;;;10.90;99.90;;;;;;6182171;23;19956;-80
2024/02/15 03:29:03;;;;;;;0.35;0.35;;;10.90;99.90;;;;;;6155868;23;20071;-81
2024/02/15 03:31:30;;;;;;;1.35;1.25;;;10.90;99.90;;;;;;6155250;23;20013;-80
2024/02/15 03:33:58;;;;;;;1.15;1.15;;;11.00;99.90;;;;;;6106792;23;20017;-80
2024/02/15 03:36:24;;;;;;;0.50;0.50;;;10.90;99.90;;;;;;6156816;23;20021;-81
2024/02/15 03:38:53;;;;;;;0.55;0.55;;;10.90;99.90;;;;;;6155833;23;20268;-81
2024/02/15 03:41:19;;;;;;;0.70;0.70;;;10.90;99.90;;;;;;6155404;23;20485;-80
2024/02/15 03:43:46;;;;;;;;;;;10.90;99.90;;;;;;6154400;23;20355;-81
2024/02/15 03:46:13;;;;;;;0.40;0.40;;;10.90;99.90;;;;;;6130148;23;19983;-82
2024/02/15 03:48:41;;;;;;;0.80;0.80;;;10.90;99.90;;;;;;6181408;23;20080;-82
2024/02/15 03:51:06;;;;;;;0.40;0.40;;;11.00;99.90;;;;;;6131038;23;20051;-81
2024/02/15 03:53:33;;;;;;;0.63;0.63;;;10.90;99.90;;;;;;6181232;23;20021;-82
2024/02/15 03:56:00;;;;;;;1.10;1.10;;;10.70;99.90;;;;;;6155971;23;20052;-82
2024/02/15 03:58:26;;;;;;;0.43;0.43;;;11.00;99.90;;;;;;6154812;23;20025;-82
2024/02/15 04:00:51;;;;;;;2.17;1.92;;;11.00;99.90;;;;;;6155127;23;20059;-81
2024/02/15 04:03:17;;;;;;;4.03;0.77;;;11.00;99.90;;;;;;6182057;23;20013;-82
2024/02/15 04:05:43;;;;;;;0.50;0.50;;;11.00;99.90;;;;;;6155497;23;20017;-82
2024/02/15 04:08:09;;;;;;;0.88;0.88;;;11.00;99.90;;;;;;6154448;23;20084;-82
2024/02/15 04:10:35;;;;;;;0.40;0.40;;;11.00;99.90;;;;;;6156008;23;20327;-82
2024/02/15 04:13:00;;;;;;;0.40;0.40;;;11.10;99.90;;;;;;6182763;23;20079;-81
2024/02/15 04:15:26;;;;;;;0.30;0.30;;;11.10;99.90;;;;;;6131280;23;20028;-82
2024/02/15 04:17:55;;;;;;;0.70;0.70;;;11.10;99.90;;;;;;6106531;23;20036;-83
2024/02/15 04:20:22;;;;;;;2.35;2.25;;;11.10;99.90;;;;;;6156957;23;20017;-82
2024/02/15 04:22:50;;;;;;;0.75;0.75;;;11.10;99.90;;;;;;6130499;23;20017;-81
2024/02/15 04:25:22;;;;;;;0.75;0.75;;;11.10;99.90;;;;;;6130202;23;20020;-82
2024/02/15 04:27:49;;;;;;;0.40;0.40;;;11.10;99.90;;;;;;6153668;23;20013;-81
2024/02/15 04:30:15;;;;;;;1.67;1.58;;;11.20;99.90;;;;;;6155041;23;20025;-82
2024/02/15 04:32:41;;;;;;;;;;;11.10;99.90;;;;;;6180899;23;20009;-82
2024/02/15 04:35:07;;;;;;;2.20;2.00;;;11.10;99.90;;;;;;6180841;23;19923;-82
2024/02/15 04:37:34;;;;;;;1.00;0.95;;;11.10;99.90;;;;;;6129923;23;20028;-82
2024/02/15 04:40:09;;;;;;;0.75;0.75;;;11.10;99.90;;;;;;6154903;23;20458;-81
2024/02/15 04:42:39;;;;;;;1.60;1.50;;;11.10;99.90;;;;;;6132866;23;20092;-81
2024/02/15 04:45:10;;;;;;;0.35;0.35;;;11.10;99.90;;;;;;6155418;23;20017;-83
2024/02/15 04:47:36;;;;;;;0.38;0.38;;;11.10;99.90;;;;;;6156888;23;20009;-83
2024/02/15 04:50:03;;;;;;;;;;;11.10;99.90;;;;;;6134005;23;20020;-81
2024/02/15 04:52:29;;;;;;;0.40;0.40;;;11.10;99.90;;;;;;6155292;23;19967;-82
2024/02/15 04:54:58;;;;;;;2.17;0.85;;;11.20;99.90;;;;;;6154533;23;20025;-81
2024/02/15 04:57:25;;;;;;;1.33;1.25;;;11.20;99.90;;;;;;6130913;23;20025;-82
2024/02/15 04:59:51;;;;;;;0.40;0.40;;;11.20;99.90;;;;;;6130879;23;20020;-82
2024/02/15 05:02:17;;;;;;;3.13;2.92;;;11.10;99.90;;;;;;6130184;23;20021;-81
2024/02/15 05:04:45;;;;;;;0.70;0.70;;;11.20;99.90;;;;;;6156109;23;20013;-82
2024/02/15 05:07:11;;;;;;;0.70;0.70;;;11.20;99.90;;;;;;6155503;23;20013;-82
2024/02/15 05:09:36;;;;;;;0.70;0.70;;;11.20;99.90;;;;;;6130001;23;20350;-81
2024/02/15 05:12:02;;;;;;;1.85;1.40;;;11.20;99.90;;;;;;6151930;23;20013;-81
2024/02/15 05:14:31;;;;;;;0.40;0.40;;;11.20;99.90;;;;;;6155223;23;20021;-82
2024/02/15 05:16:57;;;;;;;0.85;0.75;;;11.20;99.90;;;;;;6182069;23;20067;-82
2024/02/15 05:19:23;;;;;;;0.50;0.50;;;11.20;99.90;;;;;;6154075;23;20358;-81
2024/02/15 05:21:49;;;;;;;1.13;1.13;;;11.20;99.90;;;;;;6130476;23;20044;-82
2024/02/15 05:24:16;;;;;;;0.90;0.65;;;11.20;99.90;;;;;;6158349;23;20043;-82
2024/02/15 05:26:46;;;;;;;1.10;0.68;;;11.20;99.90;;;;;;6180997;23;20028;-82
2024/02/15 05:29:13;;;;;;;0.30;0.30;;;11.20;99.90;;;;;;6154995;23;20482;-82
2024/02/15 05:31:39;;;;;;;0.88;0.75;;;11.20;99.90;;;;;;6131547;23;20017;-81
2024/02/15 05:34:11;;;;;;;0.30;0.30;;;11.20;99.90;;;;;;6155320;23;20076;-80
2024/02/15 05:36:38;;;;;;;0.65;0.65;;;11.20;99.90;;;;;;6155203;23;20055;-81
2024/02/15 05:39:04;;;;;;;3.00;1.90;;;11.20;99.90;;;;;;6181784;23;20052;-82
2024/02/15 05:41:32;;;;;;;1.02;0.90;;;11.20;99.90;;;;;;6155504;23;20012;-81
2024/02/15 05:43:58;;;;;;;0.45;0.45;;;11.20;99.90;;;;;;6129275;23;20025;-81
2024/02/15 05:46:23;;;;;;;0.80;0.80;;;11.20;99.90;;;;;;6182693;23;20013;-81
2024/02/15 05:48:51;;;;;;;3.03;1.40;;;11.20;99.90;;;;;;6155728;23;20009;-81
2024/02/15 05:51:17;;;;;;;0.50;0.50;;;11.20;99.90;;;;;;6131755;23;20013;-81
2024/02/15 05:53:43;;;;;;;0.77;0.77;;;11.30;99.90;;;;;;6182326;23;20065;-81
2024/02/15 05:56:13;;;;;;;1.25;1.15;;;11.30;99.90;;;;;;6155860;23;20020;-82
2024/02/15 05:58:39;;;;;;;0.95;0.80;;;11.30;99.90;;;;;;6106879;23;20056;-82
2024/02/15 06:01:06;;;;;;;0.60;0.57;;;11.30;99.90;;;;;;6155483;23;20075;-81
2024/02/15 06:03:36;;;;;;;0.82;0.82;;;11.40;99.90;;;;;;6157356;23;20748;-82
2024/02/15 06:06:06;;;;;;;0.40;0.40;;;11.30;99.90;;;;;;6154874;23;20051;-81
2024/02/15 06:08:32;;;;;;;2.05;1.88;;;11.40;99.90;;;;;;6130698;23;20013;-81
2024/02/15 06:10:58;;;;;;;;;;;11.40;99.90;;;;;;6177326;23;20548;-81
2024/02/15 06:13:25;;;;;;;1.48;1.38;;;11.40;99.90;;;;;;6174691;23;19912;-82
2024/02/15 06:15:53;;;;;;;0.73;0.68;;;11.40;99.90;;;;;;6176880;23;20056;-82
2024/02/15 06:18:27;;;;;;;0.60;0.57;;;11.40;99.90;;;;;;6130438;23;20013;-82
2024/02/15 06:20:54;;;;;;;2.67;2.10;;;11.40;99.90;;;;;;6155383;23;20012;-82
2024/02/15 06:23:20;;;;;;;2.05;1.95;;;10.50;99.90;;;;;;6130397;23;20013;-82
2024/02/15 06:25:49;;;;;;;;;;;11.40;99.90;;;;;;6154888;23;20085;-83
2024/02/15 06:41:56;;;;;;;0.95;0.77;;;11.40;99.90;;;;;;6153454;23;20031;-83
2024/02/15 06:44:23;;;;;;;0.85;0.60;;;11.40;99.90;;;;;;6183589;23;20036;-82
2024/02/15 06:46:50;;;;;;;2.05;1.83;;;11.50;99.90;;;;;;6158175;23;20478;-82
2024/02/15 06:49:16;;;;;;;;;;;11.40;99.90;;;;;;6184243;23;20388;-81
2024/02/15 06:51:42;;;;;;;0.80;0.80;;;11.50;99.90;;;;;;6157616;23;19972;-81
2024/02/15 06:54:07;;;;;;;0.65;0.65;;;11.50;99.90;;;;;;6108546;23;20458;-83
2024/02/15 06:56:39;;;;;;;4.13;1.88;;;11.40;99.90;;;;;;6154326;23;20028;-82
2024/02/15 06:59:10;;;;;;;1.45;1.38;;;11.40;99.90;;;;;;6154670;23;20327;-82
2024/02/15 07:01:35;;;;;;;1.05;0.95;;;11.40;99.90;;;;;;6133017;23;20024;-83
2024/02/15 07:04:03;;;;;;;0.75;0.75;;;11.40;99.90;;;;;;6158002;23;20017;-82
2024/02/15 07:06:29;;;;;;;1.33;0.80;;;11.40;99.90;;;;;;6134966;23;20024;-84
2024/02/15 07:08:56;;;;;;;0.75;0.75;;;11.40;99.90;;;;;;6139088;23;20104;-81
2024/02/15 07:11:22;;;;;;;1.75;1.42;;;11.40;99.90;;;;;;6184023;23;20020;-82
2024/02/15 07:13:48;;;;;;;2.25;1.67;;;11.40;99.90;;;;;;6134040;23;20017;-82
2024/02/15 07:16:15;;;;;;;0.70;0.70;;;11.40;99.90;;;;;;6158561;23;20020;-82
2024/02/15 07:18:41;;;;;;;1.23;1.05;;;11.40;99.90;;;;;;6132990;23;20017;-82
2024/02/15 07:21:13;;;;;;;4.50;1.20;;;11.40;99.90;;;;;;6132205;23;20017;-82
2024/02/15 07:23:41;;;;;;;1.60;1.20;;;11.50;99.90;;;;;;6133947;23;20025;-82
2024/02/15 07:26:08;;;;;;;2.70;1.67;;;11.50;99.90;;;;;;6156958;23;20013;-82
2024/02/15 07:28:33;;;;;;;2.85;1.15;;;11.50;99.90;;;;;;6183609;23;20075;-83
2024/02/15 07:31:02;;;;;;;2.88;1.60;;;11.50;99.90;;;;;;6159142;23;20450;-80
2024/02/15 07:33:28;;;;;;;0.90;0.90;;;11.50;99.90;;;;;;6156737;23;20017;-81
2024/02/15 07:35:56;;;;;;;0.43;0.43;;;11.50;99.90;;;;;;6159091;23;20013;-82
2024/02/15 07:38:22;;;;;;;1.63;1.52;;;11.50;99.90;;;;;;6157968;23;20099;-82
2024/02/15 07:40:49;;;;;;;1.70;1.60;;;11.50;99.90;;;;;;6159978;23;20025;-81
2024/02/15 07:43:15;;;;;;;0.75;0.75;;;11.50;99.90;;;;;;6131423;23;20073;-81
2024/02/15 07:45:42;;;;;;;2.22;1.05;;;11.50;99.90;;;;;;6110584;23;20080;-81
2024/02/15 07:48:07;;;;;;;1.20;1.20;;;11.50;99.90;;;;;;6133896;23;20020;-81
2024/02/15 07:50:33;;;;;;;1.63;1.52;;;11.50;99.90;;;;;;6185447;23;20009;-81
2024/02/15 07:52:59;;;;;;;1.80;1.70;;;11.50;99.90;;;;;;6159734;23;20023;-81
2024/02/15 07:55:25;;;;;;;4.13;1.98;;;11.50;99.90;;;;;;6184284;23;20091;-82
2024/02/15 07:57:52;;;;;;;1.70;1.60;;;11.50;99.90;;;;;;6158435;23;20024;-82
2024/02/15 08:00:19;;;;;;;0.75;0.75;;;11.50;99.90;;;;;;6134138;23;20482;-81
2024/02/15 08:02:45;;;;;;;1.40;0.90;;;11.50;99.90;;;;;;6108880;23;20489;-81
2024/02/15 08:05:14;;;;;;;1.15;1.08;;;11.50;99.90;;;;;;6107070;23;20020;-82
2024/02/15 08:07:44;;;;;;;1.90;1.80;;;11.50;99.90;;;;;;6182420;23;20024;-83
2024/02/15 08:10:14;;;;;;;1.33;1.23;;;11.50;99.90;;;;;;6132020;23;20056;-83
2024/02/15 08:12:44;;;;;;;0.50;0.50;;;11.50;99.90;;;;;;6131585;23;20017;-81
2024/02/15 08:15:11;;;;;;;1.75;1.42;;;11.50;99.90;;;;;;6156509;23;20021;-81
2024/02/15 08:17:42;;;;;;;2.05;1.73;;;11.50;99.90;;;;;;6155847;23;20013;-81
2024/02/15 08:20:13;;;;;;;0.50;0.50;;;11.50;99.90;;;;;;6182372;23;20026;-81
2024/02/15 08:22:39;;;;;;;2.30;0.85;;;11.50;99.90;;;;;;6131465;23;20028;-82
2024/02/15 08:25:10;;;;;;;1.63;1.52;;;11.50;99.90;;;;;;6156177;23;20080;-81
2024/02/15 08:27:44;;;;;;;1.67;1.25;;;11.50;99.90;;;;;;6181483;23;20044;-82
2024/02/15 08:30:13;;;;;;;1.30;1.20;;;11.50;99.90;;;;;;6156442;23;20012;-82
2024/02/15 08:32:41;;;;;;;2.63;2.05;;;11.50;99.90;;;;;;6130409;23;20021;-81
2024/02/15 08:35:08;;;;;;;1.40;1.35;;;11.50;99.90;;;;;;6155216;23;20088;-81
2024/02/15 08:37:35;;;;;;;1.20;1.10;;;11.50;99.90;;;;;;6130283;23;20040;-81
2024/02/15 08:40:14;;;;;;;0.50;0.50;;;11.50;99.90;;;;;;6130350;23;20036;-82
2024/02/15 08:42:41;;;;;;;0.73;0.73;;;11.60;99.90;;;;;;6154261;23;20014;-83
2024/02/15 08:45:08;;;;;;;1.80;1.65;;;11.60;99.90;;;;;;6156128;23;20450;-82
2024/02/15 08:47:38;;;;;;;0.30;0.30;;;11.60;99.90;;;;;;6181955;23;20013;-82
2024/02/15 08:50:05;;;;;;;0.40;0.40;;;11.60;99.90;;;;;;6154511;23;20024;-82
2024/02/15 08:52:31;;;;;;;0.65;0.65;;;11.60;99.90;;;;;;6154578;23;20021;-82
2024/02/15 08:54:58;;;;;;;1.70;1.60;;;11.60;99.90;;;;;;6180851;23;20078;-82
2024/02/15 08:57:24;;;;;;;1.02;1.00;;;11.60;99.90;;;;;;6129496;23;20458;-81
2024/02/15 08:59:51;;;;;;;1.02;1.00;;;11.60;99.90;;;;;;6154650;23;20072;-82
2024/02/15 09:02:18;;;;;;;0.98;0.98;;;11.60;99.90;;;;;;6154199;23;20028;-82
2024/02/15 09:04:43;;;;;;;;;;;11.70;99.90;;;;;;6131325;23;20020;-82
2024/02/15 09:07:09;;;;;;;0.73;0.73;;;11.60;99.90;;;;;;6154243;23;19916;-82
2024/02/15 09:09:36;;;;;;;0.60;0.60;;;11.70;99.90;;;;;;6130003;23;20051;-82
2024/02/15 09:12:05;;;;;;;0.47;0.47;;;11.60;99.90;;;;;;6129803;23;20063;-81
2024/02/15 09:14:39;;;;;;;2.55;1.42;;;11.70;99.90;;;;;;6154543;23;20344;-83
2024/02/15 09:17:07;;;;;;;0.60;0.60;;;11.70;99.90;;;;;;6155123;23;20458;-81
2024/02/15 09:19:36;;;;;;;1.15;1.15;;;11.70;99.90;;;;;;6130432;23;20053;-81
2024/02/15 09:22:06;;;;;;;0.30;0.30;;;11.70;99.90;;;;;;6155440;23;20013;-81
2024/02/15 09:24:35;;;;;;;0.43;0.40;;;11.70;99.90;;;;;;6154123;23;20020;-82
2024/02/15 09:27:01;;;;;;;0.60;0.57;;;11.70;99.90;;;;;;6128981;23;20022;-81
2024/02/15 09:29:29;;;;;;;;;;;11.80;99.90;;;;;;6155064;23;20040;-83
2024/02/15 09:31:56;;;;;;;2.30;0.80;;;11.80;99.90;;;;;;6130093;23;19920;-83
2024/02/15 09:34:22;;;;;;;0.30;0.30;;;11.80;99.90;;;;;;6130447;23;20017;-81
2024/02/15 09:36:48;;;;;;;0.45;0.45;;;11.80;99.90;;;;;;6154928;23;20021;-82
2024/02/15 09:39:14;;;;;;;0.45;0.45;;;11.90;99.90;;;;;;6155149;23;20043;-82
2024/02/15 09:41:42;;;;;;;2.00;1.58;;;11.90;99.90;;;;;;6153849;23;20075;-82
2024/02/15 09:44:08;;;;;;;1.17;1.08;;;12.00;99.90;;;;;;6156063;23;20052;-83
2024/02/15 09:46:42;;;;;;;;;;;12.00;99.90;;;;;;6131457;23;20009;-82
2024/02/15 09:49:07;;;;;;;1.30;1.20;;;12.00;99.90;;;;;;6157784;23;19951;-84
2024/02/15 09:51:34;;;;;;;0.60;0.60;;;12.10;99.90;;;;;;6156561;23;20044;-83
2024/02/15 09:54:01;;;;;;;1.65;1.40;;;12.10;99.90;;;;;;6156345;23;20451;-83
2024/02/15 09:56:30;;;;;;;1.65;1.55;;;12.20;99.90;;;;;;6154884;23;20422;-82
2024/02/15 09:58:59;;;;;;;0.50;0.50;;;12.10;99.90;;;;;;6184146;23;20013;-82
2024/02/15 10:01:27;;;;;;;0.38;0.38;;;12.30;99.90;;;;;;6156675;23;20028;-83
2024/02/15 10:04:03;;;;;;;0.85;0.85;;;12.30;99.90;;;;;;6156683;23;20070;-82
2024/02/15 10:06:29;;;;;;;3.40;1.50;;;12.40;99.90;;;;;;6130661;23;20017;-82
2024/02/15 10:09:24;;;;;;;0.50;0.50;;;12.40;99.90;;;;;;6109860;23;20024;-82
2024/02/15 10:12:00;;;;;;;0.60;0.60;;;12.40;99.90;;;;;;6182845;23;20117;-82
2024/02/15 10:14:27;;;;;;;0.30;0.30;;;12.50;99.90;;;;;;6156542;23;20087;-82
2024/02/15 10:16:54;;;;;;;2.35;1.58;;;12.60;99.90;;;;;;6156988;23;20633;-83
2024/02/15 10:19:24;;;;;;;0.55;0.55;;;12.60;99.90;;;;;;6157609;23;20024;-83
2024/02/15 10:21:56;;;;;;;0.50;0.50;;;12.60;99.90;;;;;;6157468;23;20024;-80
2024/02/15 10:24:27;;;;;;;1.13;0.73;;;12.50;99.90;;;;;;6157348;23;20017;-81
2024/02/15 10:27:10;;;;;;;0.82;0.68;;;12.50;99.90;;;;;;6152936;23;20056;-82
2024/02/15 10:29:37;;;;;;;0.40;0.40;;;12.50;99.90;;;;;;6156604;23;20103;-82
2024/02/15 10:32:04;;;;;;;1.52;0.77;;;12.60;99.90;;;;;;6109382;23;20328;-81
2024/02/15 10:34:31;;;;;;;0.75;0.75;;;12.70;99.90;;;;;;6183089;23;20052;-82
2024/02/15 10:37:16;;;;;;;0.60;0.60;;;12.70;99.90;;;;;;6182558;23;20510;-82
2024/02/15 10:39:42;;;;;;;0.68;0.68;;;12.70;99.90;;;;;;6156947;23;20017;-82
2024/02/15 10:42:11;;;;;;;0.75;0.75;;;12.80;99.90;;;;;;6155280;23;20019;-82
2024/02/15 10:44:38;;;;;;;0.90;0.90;;;12.70;99.90;;;;;;6157228;23;20009;-80
2024/02/15 10:47:07;;;;;;;1.98;1.08;;;12.80;99.90;;;;;;6183226;23;20321;-81
2024/02/15 10:49:36;;;;;;;0.90;0.90;;;12.80;99.90;;;;;;6156871;23;20020;-82
2024/02/15 10:52:04;;;;;;;0.73;0.73;;;12.80;99.90;;;;;;6182997;23;20542;-81
2024/02/15 10:54:38;;;;;;;0.38;0.38;;;12.80;99.90;;;;;;6156469;23;20052;-81
2024/02/15 10:57:05;;;;;;;0.75;0.75;;;12.80;99.90;;;;;;6155989;23;20021;-82
2024/02/15 10:59:38;;;;;;;1.15;1.05;;;12.70;99.90;;;;;;6156128;23;20017;-82
2024/02/15 11:02:29;;;;;;;0.57;0.57;;;12.70;99.90;;;;;;6132145;23;20044;-83
2024/02/15 11:05:03;;;;;;;0.30;0.30;;;12.70;99.90;;;;;;6182663;23;20088;-81
2024/02/15 11:07:30;;;;;;;0.30;0.30;;;12.70;99.90;;;;;;6155517;23;20131;-83
2024/02/15 11:09:57;;;;;;;0.90;0.63;;;12.60;99.90;;;;;;6156497;23;20521;-82
2024/02/15 11:12:25;;;;;;;0.50;0.50;;;12.70;99.90;;;;;;6156012;23;20035;-82
2024/02/15 11:14:53;;;;;;;0.52;0.52;;;12.60;99.90;;;;;;6132312;23;20017;-82
2024/02/15 11:17:39;;;;;;;0.35;0.35;;;12.60;99.90;;;;;;6108153;23;20027;-81
2024/02/15 11:20:10;;;;;;;0.43;0.43;;;12.60;99.90;;;;;;6183621;23;20025;-82
2024/02/15 11:22:36;;;;;;;0.40;0.40;;;12.60;99.90;;;;;;6182638;23;20407;-84
2024/02/15 11:25:11;;;;;;;0.47;0.47;;;12.60;99.90;;;;;;6157489;23;20015;-82
2024/02/15 11:27:41;;;;;;;1.63;0.63;;;12.60;99.90;;;;;;6155295;23;20324;-83
2024/02/15 11:30:12;;;;;;;0.65;0.65;;;12.60;99.90;;;;;;6183058;23;20044;-82
2024/02/15 11:32:49;;;;;;;0.73;0.73;;;12.60;99.90;;;;;;6182697;23;20494;-83
2024/02/15 11:35:25;;;;;;;0.40;0.40;;;12.60;99.90;;;;;;6132345;23;20068;-83
2024/02/15 11:40:23;;;;;;;0.30;0.30;;;12.60;99.90;;;;;;6182471;23;20032;-81
2024/02/15 11:42:54;;;;;;;0.40;0.40;;;12.70;99.90;;;;;;6154572;23;20013;-83
2024/02/15 11:45:20;;;;;;;0.30;0.30;;;12.70;99.90;;;;;;6158170;23;20027;-83
2024/02/15 11:47:50;;;;;;;0.77;0.77;;;12.60;99.90;;;;;;6156453;23;20017;-81
2024/02/15 11:50:20;;;;;;;0.20;0.20;;;12.60;99.90;;;;;;6173584;23;20436;-82
2024/02/15 11:52:48;;;;;;;1.05;0.55;;;12.60;99.90;;;;;;6152644;23;20048;-82
2024/02/15 11:55:19;;;;;;;0.43;0.43;;;12.60;99.90;;;;;;6151261;23;20128;-81
2024/02/15 12:19:56;;;;;;;1.40;0.47;;;12.80;99.90;;;;;;6153604;23;20485;-82
2024/02/15 12:22:43;;;;;;;0.40;0.40;;;12.80;99.90;;;;;;6177918;23;20048;-80
2024/02/15 12:25:13;;;;;;;;;;;12.80;99.90;;;;;;6180118;23;20016;-82
2024/02/15 12:27:42;;;;;;;0.50;0.50;;;12.80;99.90;;;;;;6149515;23;20022;-84
2024/02/15 12:30:20;;;;;;;0.63;0.63;;;12.80;99.90;;;;;;6151617;23;20060;-81
2024/02/15 12:32:47;;;;;;;0.55;0.55;;;12.80;99.90;;;;;;6126367;23;20024;-82
2024/02/15 12:35:20;;;;;;;0.50;0.50;;;12.80;99.90;;;;;;6152047;23;20020;-84
2024/02/15 12:37:47;;;;;;;0.25;0.25;;;12.80;99.90;;;;;;6127962;23;20077;-82
2024/02/15 12:40:21;;;;;;;0.73;0.60;;;12.80;99.90;;;;;;6178076;23;20028;-82
2024/02/15 12:42:48;;;;;;;0.32;0.32;;;12.80;99.90;;;;;;6176747;23;20020;-82
2024/02/15 12:45:20;;;;;;;1.35;1.00;;;12.80;99.90;;;;;;6127192;23;20053;-82
2024/02/15 12:47:53;;;;;;;0.22;0.22;;;12.80;99.90;;;;;;6151393;23;20024;-80
2024/02/15 12:50:21;;;;;;;0.50;0.50;;;12.80;99.90;;;;;;6152708;23;20017;-83
2024/02/15 12:52:49;;;;;;;0.40;0.40;;;12.80;99.90;;;;;;6151851;23;20070;-83
2024/02/15 12:55:22;;;;;;;0.35;0.35;;;12.80;99.90;;;;;;6178238;23;20029;-81
2024/02/15 12:57:51;;;;;;;1.20;1.20;;;12.80;99.90;;;;;;6128504;23;20451;-83
2024/02/15 13:00:21;;;;;;;0.45;0.45;;;12.80;99.90;;;;;;6179050;23;20683;-82
2024/02/15 13:02:49;;;;;;;0.50;0.50;;;12.80;99.90;;;;;;6154958;23;20127;-83
2024/02/15 13:05:18;;;;;;;0.40;0.40;;;12.80;99.90;;;;;;6157588;23;20047;-82
2024/02/15 13:07:50;;;;;;;0.47;0.45;;;12.80;99.90;;;;;;6153165;23;20017;-83
2024/02/15 13:10:17;;;;;;;0.30;0.30;;;12.80;99.90;;;;;;6153300;23;20072;-82
2024/02/15 13:12:44;;;;;;;0.60;0.60;;;12.80;99.90;;;;;;6176807;23;20029;-82
2024/02/15 13:15:14;;;;;;;1.25;1.25;;;12.80;99.90;;;;;;6127067;23;20054;-83
2024/02/15 13:17:53;;;;;;;0.85;0.85;;;12.80;99.90;;;;;;6152408;23;20021;-82
2024/02/15 13:20:27;;;;;;;1.90;0.85;;;12.80;99.90;;;;;;6152521;23;20028;-83
2024/02/15 13:22:57;;;;;;;0.95;0.95;;;12.90;99.90;;;;;;6133589;23;20071;-82
2024/02/15 13:25:22;;;;;;;1.75;1.65;;;12.90;99.90;;;;;;6183496;23;20048;-82
2024/02/15 13:27:48;;;;;;;1.73;1.27;;;12.90;99.90;;;;;;6156842;23;20020;-83
2024/02/15 13:30:14;;;;;;;0.57;0.57;;;12.80;99.90;;;;;;6134724;23;20044;-82
2024/02/15 13:32:40;;;;;;;0.57;0.57;;;12.80;99.90;;;;;;6158696;23;20017;-83